Terminal Aerodrome Forecast
Issued by NWS Twin Cities, MN

Home | Current Version | Previous Version | Text Only | Print | Product List | Glossary On
Versions: 1 2 3 4 5 6 7 8 9 10 11 12
000
FTUS43 KMPX 041126
TAFSTC
TAF
KSTC 041126Z 0412/0512 34008KT P6SM SKC
     FM041600 35013G20KT P6SM SKC
     FM042200 35008KT P6SM SKC
     FM050200 VRB03KT P6SM SKC=

USA.gov is the U.S. government's official web portal to all federal, state and local government web resources and services.